sensor_id;sensor_type;location;lat;lon;timestamp;temperature;humidity
45843;DHT22;31563;51.744;8.252;2024-01-30T00:02:26;18.40;51.40
45843;DHT22;31563;51.744;8.252;2024-01-30T00:04:54;18.40;51.40
45843;DHT22;31563;51.744;8.252;2024-01-30T00:07:24;18.40;51.30
45843;DHT22;31563;51.744;8.252;2024-01-30T00:09:52;18.40;51.30
45843;DHT22;31563;51.744;8.252;2024-01-30T00:12:20;18.40;51.30
45843;DHT22;31563;51.744;8.252;2024-01-30T00:14:47;18.30;51.30
45843;DHT22;31563;51.744;8.252;2024-01-30T00:17:20;18.30;51.20
45843;DHT22;31563;51.744;8.252;2024-01-30T00:19:48;18.30;51.30
45843;DHT22;31563;51.744;8.252;2024-01-30T00:22:16;18.30;51.40
45843;DHT22;31563;51.744;8.252;2024-01-30T00:24:46;18.30;51.30
45843;DHT22;31563;51.744;8.252;2024-01-30T00:27:14;18.30;51.10
45843;DHT22;31563;51.744;8.252;2024-01-30T00:29:42;18.30;51.20
45843;DHT22;31563;51.744;8.252;2024-01-30T00:32:10;18.30;51.20
45843;DHT22;31563;51.744;8.252;2024-01-30T00:34:38;18.30;51.20
45843;DHT22;31563;51.744;8.252;2024-01-30T00:37:06;18.30;51.30
45843;DHT22;31563;51.744;8.252;2024-01-30T00:39:34;18.20;51.20
45843;DHT22;31563;51.744;8.252;2024-01-30T00:42:05;18.30;51.30
45843;DHT22;31563;51.744;8.252;2024-01-30T00:44:35;18.20;51.20
45843;DHT22;31563;51.744;8.252;2024-01-30T00:47:04;18.20;51.30
45843;DHT22;31563;51.744;8.252;2024-01-30T00:49:32;18.10;51.40
45843;DHT22;31563;51.744;8.252;2024-01-30T00:52:00;18.10;51.40
45843;DHT22;31563;51.744;8.252;2024-01-30T00:54:28;18.10;51.40
45843;DHT22;31563;51.744;8.252;2024-01-30T00:56:56;18.10;51.50
45843;DHT22;31563;51.744;8.252;2024-01-30T00:59:26;18.00;51.40
45843;DHT22;31563;51.744;8.252;2024-01-30T01:01:53;18.00;51.50
45843;DHT22;31563;51.744;8.252;2024-01-30T01:04:22;18.00;51.50
45843;DHT22;31563;51.744;8.252;2024-01-30T01:06:50;18.00;52.20
45843;DHT22;31563;51.744;8.252;2024-01-30T01:09:18;18.00;51.50
45843;DHT22;31563;51.744;8.252;2024-01-30T01:11:46;18.00;52.10
45843;DHT22;31563;51.744;8.252;2024-01-30T01:14:14;18.00;51.50
45843;DHT22;31563;51.744;8.252;2024-01-30T01:16:43;18.00;51.50
45843;DHT22;31563;51.744;8.252;2024-01-30T01:19:12;18.00;51.50
45843;DHT22;31563;51.744;8.252;2024-01-30T01:21:40;18.00;51.50
45843;DHT22;31563;51.744;8.252;2024-01-30T01:24:08;18.00;51.50
45843;DHT22;31563;51.744;8.252;2024-01-30T01:26:35;18.00;51.50
45843;DHT22;31563;51.744;8.252;2024-01-30T01:29:03;18.00;51.40
45843;DHT22;31563;51.744;8.252;2024-01-30T01:31:36;18.00;51.40
45843;DHT22;31563;51.744;8.252;2024-01-30T01:34:11;18.00;51.40
45843;DHT22;31563;51.744;8.252;2024-01-30T01:36:39;18.00;51.40
45843;DHT22;31563;51.744;8.252;2024-01-30T01:39:07;17.90;51.50
45843;DHT22;31563;51.744;8.252;2024-01-30T01:41:36;17.90;51.50
45843;DHT22;31563;51.744;8.252;2024-01-30T01:44:04;17.90;51.50
45843;DHT22;31563;51.744;8.252;2024-01-30T01:46:33;17.90;51.50
45843;DHT22;31563;51.744;8.252;2024-01-30T01:49:02;17.90;51.50
45843;DHT22;31563;51.744;8.252;2024-01-30T01:51:35;17.80;51.50
45843;DHT22;31563;51.744;8.252;2024-01-30T01:54:04;17.70;51.50
45843;DHT22;31563;51.744;8.252;2024-01-30T01:56:33;17.70;51.70
45843;DHT22;31563;51.744;8.252;2024-01-30T01:59:05;17.70;51.70
45843;DHT22;31563;51.744;8.252;2024-01-30T02:01:34;17.70;51.60
45843;DHT22;31563;51.744;8.252;2024-01-30T02:04:04;17.70;51.80
45843;DHT22;31563;51.744;8.252;2024-01-30T02:06:34;17.70;51.80
45843;DHT22;31563;51.744;8.252;2024-01-30T02:09:02;17.70;51.60
45843;DHT22;31563;51.744;8.252;2024-01-30T02:11:32;17.70;51.70
45843;DHT22;31563;51.744;8.252;2024-01-30T02:14:02;17.70;51.70
45843;DHT22;31563;51.744;8.252;2024-01-30T02:16:30;17.60;51.70
45843;DHT22;31563;51.744;8.252;2024-01-30T02:18:58;17.60;51.80
45843;DHT22;31563;51.744;8.252;2024-01-30T02:21:28;17.70;51.80
45843;DHT22;31563;51.744;8.252;2024-01-30T02:23:56;17.60;51.70
45843;DHT22;31563;51.744;8.252;2024-01-30T02:26:26;17.60;51.60
45843;DHT22;31563;51.744;8.252;2024-01-30T02:28:54;17.60;51.60
45843;DHT22;31563;51.744;8.252;2024-01-30T02:31:21;17.60;51.60
45843;DHT22;31563;51.744;8.252;2024-01-30T02:33:50;17.60;51.70
45843;DHT22;31563;51.744;8.252;2024-01-30T02:36:18;17.60;51.70
45843;DHT22;31563;51.744;8.252;2024-01-30T02:38:48;17.60;51.70
45843;DHT22;31563;51.744;8.252;2024-01-30T02:41:15;17.50;51.70
45843;DHT22;31563;51.744;8.252;2024-01-30T02:43:43;17.50;51.70
45843;DHT22;31563;51.744;8.252;2024-01-30T02:46:11;17.50;51.80
45843;DHT22;31563;51.744;8.252;2024-01-30T02:48:39;17.40;51.80
45843;DHT22;31563;51.744;8.252;2024-01-30T02:51:07;17.40;51.80
45843;DHT22;31563;51.744;8.252;2024-01-30T02:53:35;17.40;51.80
45843;DHT22;31563;51.744;8.252;2024-01-30T02:56:05;17.40;51.90
45843;DHT22;31563;51.744;8.252;2024-01-30T02:58:36;17.40;51.90
45843;DHT22;31563;51.744;8.252;2024-01-30T03:01:04;17.40;52.40
45843;DHT22;31563;51.744;8.252;2024-01-30T03:03:32;17.40;52.30
45843;DHT22;31563;51.744;8.252;2024-01-30T03:06:02;17.40;51.80
45843;DHT22;31563;51.744;8.252;2024-01-30T03:08:30;17.40;51.80
45843;DHT22;31563;51.744;8.252;2024-01-30T03:10:57;17.40;51.80
45843;DHT22;31563;51.744;8.252;2024-01-30T03:13:27;17.40;51.80
45843;DHT22;31563;51.744;8.252;2024-01-30T03:15:55;17.40;51.80
45843;DHT22;31563;51.744;8.252;2024-01-30T03:18:23;17.40;51.70
45843;DHT22;31563;51.744;8.252;2024-01-30T03:20:51;17.40;51.70
45843;DHT22;31563;51.744;8.252;2024-01-30T03:23:18;17.40;51.60
45843;DHT22;31563;51.744;8.252;2024-01-30T03:25:46;17.40;51.70
45843;DHT22;31563;51.744;8.252;2024-01-30T03:28:14;17.40;51.70
45843;DHT22;31563;51.744;8.252;2024-01-30T03:30:44;17.40;51.80
45843;DHT22;31563;51.744;8.252;2024-01-30T03:33:12;17.30;51.80
45843;DHT22;31563;51.744;8.252;2024-01-30T03:35:40;17.30;51.80
45843;DHT22;31563;51.744;8.252;2024-01-30T03:38:08;17.30;52.00
45843;DHT22;31563;51.744;8.252;2024-01-30T03:40:35;17.30;52.00
45843;DHT22;31563;51.744;8.252;2024-01-30T03:43:03;17.30;52.00
45843;DHT22;31563;51.744;8.252;2024-01-30T03:45:31;17.20;52.00
45843;DHT22;31563;51.744;8.252;2024-01-30T03:48:01;17.20;52.00
45843;DHT22;31563;51.744;8.252;2024-01-30T03:50:29;17.20;52.10
45843;DHT22;31563;51.744;8.252;2024-01-30T03:52:57;17.20;52.10
45843;DHT22;31563;51.744;8.252;2024-01-30T03:55:25;17.20;52.10
45843;DHT22;31563;51.744;8.252;2024-01-30T03:57:53;17.20;52.10
45843;DHT22;31563;51.744;8.252;2024-01-30T04:00:21;17.30;52.00
45843;DHT22;31563;51.744;8.252;2024-01-30T04:02:49;17.20;52.70
45843;DHT22;31563;51.744;8.252;2024-01-30T04:05:19;17.20;52.00
45843;DHT22;31563;51.744;8.252;2024-01-30T04:07:47;17.20;52.00
45843;DHT22;31563;51.744;8.252;2024-01-30T04:10:15;17.20;52.00
45843;DHT22;31563;51.744;8.252;2024-01-30T04:12:43;17.20;52.00
45843;DHT22;31563;51.744;8.252;2024-01-30T04:15:11;17.20;52.00
45843;DHT22;31563;51.744;8.252;2024-01-30T04:17:40;17.20;52.00
45843;DHT22;31563;51.744;8.252;2024-01-30T04:20:12;17.10;52.10
45843;DHT22;31563;51.744;8.252;2024-01-30T04:22:42;17.10;52.10
45843;DHT22;31563;51.744;8.252;2024-01-30T04:25:10;17.10;52.00
45843;DHT22;31563;51.744;8.252;2024-01-30T04:27:38;17.10;52.10
45843;DHT22;31563;51.744;8.252;2024-01-30T04:30:07;17.10;52.10
45843;DHT22;31563;51.744;8.252;2024-01-30T04:32:35;17.10;52.10
45843;DHT22;31563;51.744;8.252;2024-01-30T04:35:04;17.00;52.10
45843;DHT22;31563;51.744;8.252;2024-01-30T04:37:37;17.00;52.20
45843;DHT22;31563;51.744;8.252;2024-01-30T04:40:07;17.00;52.30
45843;DHT22;31563;51.744;8.252;2024-01-30T04:42:36;17.00;52.30
45843;DHT22;31563;51.744;8.252;2024-01-30T04:45:05;17.00;52.30
45843;DHT22;31563;51.744;8.252;2024-01-30T04:47:33;17.00;52.30
45843;DHT22;31563;51.744;8.252;2024-01-30T04:50:01;17.10;52.30
45843;DHT22;31563;51.744;8.252;2024-01-30T04:52:31;17.20;52.30
45843;DHT22;31563;51.744;8.252;2024-01-30T04:54:59;17.20;52.10
45843;DHT22;31563;51.744;8.252;2024-01-30T04:57:28;17.30;52.00
45843;DHT22;31563;51.744;8.252;2024-01-30T04:59:57;17.40;51.80
45843;DHT22;31563;51.744;8.252;2024-01-30T05:02:25;17.40;51.70
45843;DHT22;31563;51.744;8.252;2024-01-30T05:04:53;17.50;51.60
45843;DHT22;31563;51.744;8.252;2024-01-30T05:07:21;17.50;51.50
45843;DHT22;31563;51.744;8.252;2024-01-30T05:09:49;17.50;51.40
45843;DHT22;31563;51.744;8.252;2024-01-30T05:12:17;17.60;51.30
45843;DHT22;31563;51.744;8.252;2024-01-30T05:14:46;17.60;51.30
45843;DHT22;31563;51.744;8.252;2024-01-30T05:17:14;17.60;51.30
45843;DHT22;31563;51.744;8.252;2024-01-30T05:19:44;17.60;51.10
45843;DHT22;31563;51.744;8.252;2024-01-30T05:22:12;17.60;51.10
45843;DHT22;31563;51.744;8.252;2024-01-30T05:24:42;17.70;51.10
45843;DHT22;31563;51.744;8.252;2024-01-30T05:27:10;17.70;51.10
45843;DHT22;31563;51.744;8.252;2024-01-30T05:29:40;17.70;51.00
45843;DHT22;31563;51.744;8.252;2024-01-30T05:32:09;17.80;52.20
45843;DHT22;31563;51.744;8.252;2024-01-30T05:34:37;17.80;53.00
45843;DHT22;31563;51.744;8.252;2024-01-30T05:37:05;17.80;51.80
45843;DHT22;31563;51.744;8.252;2024-01-30T05:39:33;17.80;51.40
45843;DHT22;31563;51.744;8.252;2024-01-30T05:42:02;17.80;50.30
45843;DHT22;31563;51.744;8.252;2024-01-30T05:44:30;17.70;49.80
45843;DHT22;31563;51.744;8.252;2024-01-30T05:46:58;17.60;49.70
45843;DHT22;31563;51.744;8.252;2024-01-30T05:49:27;17.60;49.60
45843;DHT22;31563;51.744;8.252;2024-01-30T05:51:55;17.60;49.60
45843;DHT22;31563;51.744;8.252;2024-01-30T05:54:23;17.50;49.10
45843;DHT22;31563;51.744;8.252;2024-01-30T05:56:51;17.50;49.00
45843;DHT22;31563;51.744;8.252;2024-01-30T05:59:19;17.50;49.20
45843;DHT22;31563;51.744;8.252;2024-01-30T06:01:46;17.40;49.40
45843;DHT22;31563;51.744;8.252;2024-01-30T06:04:15;17.40;49.40
45843;DHT22;31563;51.744;8.252;2024-01-30T06:06:44;17.40;50.80
45843;DHT22;31563;51.744;8.252;2024-01-30T06:09:12;17.60;50.00
45843;DHT22;31563;51.744;8.252;2024-01-30T06:11:40;17.60;50.20
45843;DHT22;31563;51.744;8.252;2024-01-30T06:14:08;17.60;50.10
45843;DHT22;31563;51.744;8.252;2024-01-30T06:16:36;17.60;50.20
45843;DHT22;31563;51.744;8.252;2024-01-30T06:19:04;17.60;50.20
45843;DHT22;31563;51.744;8.252;2024-01-30T06:21:32;17.60;50.30
45843;DHT22;31563;51.744;8.252;2024-01-30T06:24:05;17.60;50.30
45843;DHT22;31563;51.744;8.252;2024-01-30T06:26:33;17.60;49.90
45843;DHT22;31563;51.744;8.252;2024-01-30T06:29:01;17.60;50.10
45843;DHT22;31563;51.744;8.252;2024-01-30T06:31:29;17.50;50.10
45843;DHT22;31563;51.744;8.252;2024-01-30T06:33:57;17.50;50.70
45843;DHT22;31563;51.744;8.252;2024-01-30T06:36:25;17.60;50.40
45843;DHT22;31563;51.744;8.252;2024-01-30T06:38:53;17.70;50.20
45843;DHT22;31563;51.744;8.252;2024-01-30T06:41:22;17.70;50.20
45843;DHT22;31563;51.744;8.252;2024-01-30T06:43:50;17.70;50.20
45843;DHT22;31563;51.744;8.252;2024-01-30T06:46:18;17.70;50.30
45843;DHT22;31563;51.744;8.252;2024-01-30T06:48:46;17.70;50.40
45843;DHT22;31563;51.744;8.252;2024-01-30T06:51:14;17.60;50.40
45843;DHT22;31563;51.744;8.252;2024-01-30T06:53:44;17.70;50.30
45843;DHT22;31563;51.744;8.252;2024-01-30T06:56:12;17.70;50.30
45843;DHT22;31563;51.744;8.252;2024-01-30T06:58:41;17.70;50.30
45843;DHT22;31563;51.744;8.252;2024-01-30T07:01:09;17.60;50.40
45843;DHT22;31563;51.744;8.252;2024-01-30T07:03:38;17.60;50.40
45843;DHT22;31563;51.744;8.252;2024-01-30T07:06:06;17.60;50.40
45843;DHT22;31563;51.744;8.252;2024-01-30T07:08:34;17.60;50.40
45843;DHT22;31563;51.744;8.252;2024-01-30T07:11:02;17.70;50.50
45843;DHT22;31563;51.744;8.252;2024-01-30T07:13:30;17.70;50.40
45843;DHT22;31563;51.744;8.252;2024-01-30T07:16:00;17.70;50.00
45843;DHT22;31563;51.744;8.252;2024-01-30T07:18:27;17.40;49.30
45843;DHT22;31563;51.744;8.252;2024-01-30T07:20:55;17.10;49.90
45843;DHT22;31563;51.744;8.252;2024-01-30T07:23:23;17.00;50.50
45843;DHT22;31563;51.744;8.252;2024-01-30T07:25:51;17.00;50.70
45843;DHT22;31563;51.744;8.252;2024-01-30T07:28:19;17.10;50.60
45843;DHT22;31563;51.744;8.252;2024-01-30T07:30:47;17.30;50.50
45843;DHT22;31563;51.744;8.252;2024-01-30T07:33:17;17.40;50.40
45843;DHT22;31563;51.744;8.252;2024-01-30T07:35:45;17.50;50.10
45843;DHT22;31563;51.744;8.252;2024-01-30T07:38:13;17.60;50.10
45843;DHT22;31563;51.744;8.252;2024-01-30T07:40:41;17.70;49.90
45843;DHT22;31563;51.744;8.252;2024-01-30T07:43:09;17.70;49.70
45843;DHT22;31563;51.744;8.252;2024-01-30T07:45:37;17.80;49.70
45843;DHT22;31563;51.744;8.252;2024-01-30T07:48:06;17.90;49.50
45843;DHT22;31563;51.744;8.252;2024-01-30T07:50:35;17.90;49.50
45843;DHT22;31563;51.744;8.252;2024-01-30T07:53:04;18.00;49.60
45843;DHT22;31563;51.744;8.252;2024-01-30T07:55:32;18.00;49.70
45843;DHT22;31563;51.744;8.252;2024-01-30T07:58:00;18.00;49.80
45843;DHT22;31563;51.744;8.252;2024-01-30T08:00:28;18.00;49.80
45843;DHT22;31563;51.744;8.252;2024-01-30T08:02:56;18.10;49.90
45843;DHT22;31563;51.744;8.252;2024-01-30T08:05:25;18.10;49.90
45843;DHT22;31563;51.744;8.252;2024-01-30T08:07:54;18.20;49.90
45843;DHT22;31563;51.744;8.252;2024-01-30T08:10:22;18.40;51.50
45843;DHT22;31563;51.744;8.252;2024-01-30T08:12:50;18.80;51.30
45843;DHT22;31563;51.744;8.252;2024-01-30T08:15:18;18.80;51.30
45843;DHT22;31563;51.744;8.252;2024-01-30T08:17:46;18.90;51.50
45843;DHT22;31563;51.744;8.252;2024-01-30T08:20:14;18.90;51.50
45843;DHT22;31563;51.744;8.252;2024-01-30T08:22:43;19.00;51.40
45843;DHT22;31563;51.744;8.252;2024-01-30T08:25:12;18.90;51.30
45843;DHT22;31563;51.744;8.252;2024-01-30T08:27:41;18.90;51.30
45843;DHT22;31563;51.744;8.252;2024-01-30T08:30:09;18.90;51.90
45843;DHT22;31563;51.744;8.252;2024-01-30T08:32:37;18.90;51.30
45843;DHT22;31563;51.744;8.252;2024-01-30T08:35:06;19.00;51.20
45843;DHT22;31563;51.744;8.252;2024-01-30T08:37:35;19.10;51.00
45843;DHT22;31563;51.744;8.252;2024-01-30T08:40:04;19.20;50.80
45843;DHT22;31563;51.744;8.252;2024-01-30T08:42:34;19.30;50.60
45843;DHT22;31563;51.744;8.252;2024-01-30T08:45:02;19.30;50.50
45843;DHT22;31563;51.744;8.252;2024-01-30T08:47:31;19.40;50.50
45843;DHT22;31563;51.744;8.252;2024-01-30T08:49:59;19.40;50.30
45843;DHT22;31563;51.744;8.252;2024-01-30T08:52:28;19.40;50.20
45843;DHT22;31563;51.744;8.252;2024-01-30T08:54:56;19.60;50.20
45843;DHT22;31563;51.744;8.252;2024-01-30T08:57:24;19.70;49.90
45843;DHT22;31563;51.744;8.252;2024-01-30T08:59:56;19.80;49.70
45843;DHT22;31563;51.744;8.252;2024-01-30T09:02:24;19.90;49.40
45843;DHT22;31563;51.744;8.252;2024-01-30T09:04:52;19.90;49.20
45843;DHT22;31563;51.744;8.252;2024-01-30T09:07:21;20.00;49.00
45843;DHT22;31563;51.744;8.252;2024-01-30T09:09:49;20.00;49.00
45843;DHT22;31563;51.744;8.252;2024-01-30T09:12:16;20.10;48.90
45843;DHT22;31563;51.744;8.252;2024-01-30T09:14:44;20.20;48.90
45843;DHT22;31563;51.744;8.252;2024-01-30T09:17:14;20.20;48.70
45843;DHT22;31563;51.744;8.252;2024-01-30T09:19:41;20.30;48.70
45843;DHT22;31563;51.744;8.252;2024-01-30T09:22:09;20.40;48.50
45843;DHT22;31563;51.744;8.252;2024-01-30T09:24:37;20.40;48.40
45843;DHT22;31563;51.744;8.252;2024-01-30T09:27:05;20.50;48.30
45843;DHT22;31563;51.744;8.252;2024-01-30T09:29:33;20.50;48.30
45843;DHT22;31563;51.744;8.252;2024-01-30T09:32:04;20.50;48.00
45843;DHT22;31563;51.744;8.252;2024-01-30T09:34:34;20.60;48.20
45843;DHT22;31563;51.744;8.252;2024-01-30T09:37:03;20.60;48.00
45843;DHT22;31563;51.744;8.252;2024-01-30T09:39:31;20.60;48.00
45843;DHT22;31563;51.744;8.252;2024-01-30T09:42:04;20.60;48.00
45843;DHT22;31563;51.744;8.252;2024-01-30T09:44:35;20.60;48.10
45843;DHT22;31563;51.744;8.252;2024-01-30T09:47:04;20.60;48.10
45843;DHT22;31563;51.744;8.252;2024-01-30T09:49:34;20.50;48.10
45843;DHT22;31563;51.744;8.252;2024-01-30T09:52:04;20.60;48.20
45843;DHT22;31563;51.744;8.252;2024-01-30T09:54:32;20.70;48.10
45843;DHT22;31563;51.744;8.252;2024-01-30T09:57:03;20.80;48.10
45843;DHT22;31563;51.744;8.252;2024-01-30T09:59:31;20.80;47.90
45843;DHT22;31563;51.744;8.252;2024-01-30T10:02:00;20.90;47.80
45843;DHT22;31563;51.744;8.252;2024-01-30T10:04:31;21.00;47.60
45843;DHT22;31563;51.744;8.252;2024-01-30T10:07:01;21.10;47.50
45843;DHT22;31563;51.744;8.252;2024-01-30T10:09:32;21.10;47.40
45843;DHT22;31563;51.744;8.252;2024-01-30T10:12:02;21.20;47.40
45843;DHT22;31563;51.744;8.252;2024-01-30T10:14:31;21.20;47.40
45843;DHT22;31563;51.744;8.252;2024-01-30T10:16:59;21.20;47.40
45843;DHT22;31563;51.744;8.252;2024-01-30T10:19:27;21.20;47.30
45843;DHT22;31563;51.744;8.252;2024-01-30T10:21:55;21.30;47.30
45843;DHT22;31563;51.744;8.252;2024-01-30T10:24:26;21.30;47.10
45843;DHT22;31563;51.744;8.252;2024-01-30T10:26:56;21.50;47.00
45843;DHT22;31563;51.744;8.252;2024-01-30T10:29:24;21.50;46.80
45843;DHT22;31563;51.744;8.252;2024-01-30T10:31:59;21.60;46.80
45843;DHT22;31563;51.744;8.252;2024-01-30T10:34:27;21.80;46.80
45843;DHT22;31563;51.744;8.252;2024-01-30T10:37:01;21.90;46.40
45843;DHT22;31563;51.744;8.252;2024-01-30T10:39:38;22.20;46.90
45843;DHT22;31563;51.744;8.252;2024-01-30T10:42:07;22.50;45.80
45843;DHT22;31563;51.744;8.252;2024-01-30T10:44:44;22.50;45.40
45843;DHT22;31563;51.744;8.252;2024-01-30T10:47:17;22.40;45.40
45843;DHT22;31563;51.744;8.252;2024-01-30T10:49:46;22.30;45.70
45843;DHT22;31563;51.744;8.252;2024-01-30T10:52:16;22.20;46.00
45843;DHT22;31563;51.744;8.252;2024-01-30T10:54:46;22.20;46.20
45843;DHT22;31563;51.744;8.252;2024-01-30T10:57:15;22.20;46.30
45843;DHT22;31563;51.744;8.252;2024-01-30T10:59:44;22.10;46.30
45843;DHT22;31563;51.744;8.252;2024-01-30T11:02:13;22.10;46.50
45843;DHT22;31563;51.744;8.252;2024-01-30T11:04:42;22.00;46.60
45843;DHT22;31563;51.744;8.252;2024-01-30T11:07:14;22.10;46.70
45843;DHT22;31563;51.744;8.252;2024-01-30T11:09:50;22.40;46.60
45843;DHT22;31563;51.744;8.252;2024-01-30T11:12:22;23.00;45.80
45843;DHT22;31563;51.744;8.252;2024-01-30T11:14:50;23.80;45.80
45843;DHT22;31563;51.744;8.252;2024-01-30T11:17:40;24.20;43.90
45843;DHT22;31563;51.744;8.252;2024-01-30T11:20:10;24.10;43.20
45843;DHT22;31563;51.744;8.252;2024-01-30T11:22:41;23.90;43.60
45843;DHT22;31563;51.744;8.252;2024-01-30T11:25:13;23.70;44.00
45843;DHT22;31563;51.744;8.252;2024-01-30T11:27:42;23.50;44.40
45843;DHT22;31563;51.744;8.252;2024-01-30T11:30:11;23.40;44.80
45843;DHT22;31563;51.744;8.252;2024-01-30T11:32:39;23.40;45.10
45843;DHT22;31563;51.744;8.252;2024-01-30T11:35:07;23.40;45.10
45843;DHT22;31563;51.744;8.252;2024-01-30T11:37:37;23.50;44.90
45843;DHT22;31563;51.744;8.252;2024-01-30T11:40:07;23.60;44.70
45843;DHT22;31563;51.744;8.252;2024-01-30T11:42:37;23.50;44.70
45843;DHT22;31563;51.744;8.252;2024-01-30T11:45:06;23.20;45.20
45843;DHT22;31563;51.744;8.252;2024-01-30T11:47:35;23.00;45.80
45843;DHT22;31563;51.744;8.252;2024-01-30T11:50:07;22.80;46.30
45843;DHT22;31563;51.744;8.252;2024-01-30T11:52:37;22.60;46.60
45843;DHT22;31563;51.744;8.252;2024-01-30T11:55:06;22.60;46.80
45843;DHT22;31563;51.744;8.252;2024-01-30T11:57:34;22.60;46.90
45843;DHT22;31563;51.744;8.252;2024-01-30T12:00:06;22.70;46.90
45843;DHT22;31563;51.744;8.252;2024-01-30T12:02:37;22.80;46.80
45843;DHT22;31563;51.744;8.252;2024-01-30T12:05:05;22.90;46.90
45843;DHT22;31563;51.744;8.252;2024-01-30T12:07:33;23.00;46.40
45843;DHT22;31563;51.744;8.252;2024-01-30T12:10:02;23.10;46.10
45843;DHT22;31563;51.744;8.252;2024-01-30T12:12:30;23.00;46.20
45843;DHT22;31563;51.744;8.252;2024-01-30T12:14:58;22.90;46.30
45843;DHT22;31563;51.744;8.252;2024-01-30T12:17:30;22.90;46.40
45843;DHT22;31563;51.744;8.252;2024-01-30T12:20:05;22.90;47.10
45843;DHT22;31563;51.744;8.252;2024-01-30T12:22:36;22.90;46.60
45843;DHT22;31563;51.744;8.252;2024-01-30T12:25:07;23.10;46.40
45843;DHT22;31563;51.744;8.252;2024-01-30T12:27:35;23.10;46.20
45843;DHT22;31563;51.744;8.252;2024-01-30T12:30:05;23.00;46.30
45843;DHT22;31563;51.744;8.252;2024-01-30T12:32:36;22.90;46.40
45843;DHT22;31563;51.744;8.252;2024-01-30T12:35:07;22.80;46.70
45843;DHT22;31563;51.744;8.252;2024-01-30T12:37:35;22.70;46.90
45843;DHT22;31563;51.744;8.252;2024-01-30T12:40:04;22.70;47.00
45843;DHT22;31563;51.744;8.252;2024-01-30T12:42:33;22.70;47.00
45843;DHT22;31563;51.744;8.252;2024-01-30T12:45:02;22.80;47.00
45843;DHT22;31563;51.744;8.252;2024-01-30T12:47:30;22.80;47.00
45843;DHT22;31563;51.744;8.252;2024-01-30T12:50:00;22.90;46.90
45843;DHT22;31563;51.744;8.252;2024-01-30T12:52:28;22.90;46.70
45843;DHT22;31563;51.744;8.252;2024-01-30T12:54:56;22.80;46.70
45843;DHT22;31563;51.744;8.252;2024-01-30T12:57:25;22.70;47.10
45843;DHT22;31563;51.744;8.252;2024-01-30T12:59:53;22.60;47.40
45843;DHT22;31563;51.744;8.252;2024-01-30T13:02:21;22.40;47.50
45843;DHT22;31563;51.744;8.252;2024-01-30T13:04:49;22.30;47.70
45843;DHT22;31563;51.744;8.252;2024-01-30T13:07:18;22.30;48.00
45843;DHT22;31563;51.744;8.252;2024-01-30T13:09:47;22.20;48.10
45843;DHT22;31563;51.744;8.252;2024-01-30T13:12:15;22.10;48.30
45843;DHT22;31563;51.744;8.252;2024-01-30T13:14:43;22.10;48.30
45843;DHT22;31563;51.744;8.252;2024-01-30T13:17:11;22.10;48.40
45843;DHT22;31563;51.744;8.252;2024-01-30T13:19:39;22.10;48.30
45843;DHT22;31563;51.744;8.252;2024-01-30T13:22:07;22.20;48.40
45843;DHT22;31563;51.744;8.252;2024-01-30T13:24:38;22.20;48.50
45843;DHT22;31563;51.744;8.252;2024-01-30T13:27:06;22.20;48.50
45843;DHT22;31563;51.744;8.252;2024-01-30T13:29:34;22.10;48.50
45843;DHT22;31563;51.744;8.252;2024-01-30T13:32:02;22.00;48.40
45843;DHT22;31563;51.744;8.252;2024-01-30T13:34:30;22.00;48.60
45843;DHT22;31563;51.744;8.252;2024-01-30T13:36:58;22.00;48.70
45843;DHT22;31563;51.744;8.252;2024-01-30T13:39:26;22.00;48.80
45843;DHT22;31563;51.744;8.252;2024-01-30T13:42:04;21.90;48.90
45843;DHT22;31563;51.744;8.252;2024-01-30T13:44:34;21.80;48.90
45843;DHT22;31563;51.744;8.252;2024-01-30T13:47:03;21.80;49.10
45843;DHT22;31563;51.744;8.252;2024-01-30T13:49:31;21.70;49.20
45843;DHT22;31563;51.744;8.252;2024-01-30T13:51:59;21.70;49.20
45843;DHT22;31563;51.744;8.252;2024-01-30T13:54:27;21.70;49.30
45843;DHT22;31563;51.744;8.252;2024-01-30T13:56:55;21.60;49.40
45843;DHT22;31563;51.744;8.252;2024-01-30T13:59:24;21.60;49.40
45843;DHT22;31563;51.744;8.252;2024-01-30T14:01:52;21.60;49.40
45843;DHT22;31563;51.744;8.252;2024-01-30T14:04:20;21.60;49.40
45843;DHT22;31563;51.744;8.252;2024-01-30T14:06:49;21.60;49.50
45843;DHT22;31563;51.744;8.252;2024-01-30T14:09:29;21.60;49.60
45843;DHT22;31563;51.744;8.252;2024-01-30T14:11:59;21.50;49.70
45843;DHT22;31563;51.744;8.252;2024-01-30T14:14:28;21.40;49.70
45843;DHT22;31563;51.744;8.252;2024-01-30T14:16:56;21.40;49.90
45843;DHT22;31563;51.744;8.252;2024-01-30T14:19:25;21.30;50.00
45843;DHT22;31563;51.744;8.252;2024-01-30T14:21:53;21.20;50.30
45843;DHT22;31563;51.744;8.252;2024-01-30T14:24:20;21.20;50.30
45843;DHT22;31563;51.744;8.252;2024-01-30T14:26:48;21.20;50.40
45843;DHT22;31563;51.744;8.252;2024-01-30T14:29:17;21.20;50.40
45843;DHT22;31563;51.744;8.252;2024-01-30T14:31:46;21.10;50.40
45843;DHT22;31563;51.744;8.252;2024-01-30T14:34:14;21.10;50.60
45843;DHT22;31563;51.744;8.252;2024-01-30T14:36:42;21.00;50.70
45843;DHT22;31563;51.744;8.252;2024-01-30T14:39:10;21.00;50.80
45843;DHT22;31563;51.744;8.252;2024-01-30T14:41:38;21.00;50.80
45843;DHT22;31563;51.744;8.252;2024-01-30T14:44:06;21.00;50.70
45843;DHT22;31563;51.744;8.252;2024-01-30T14:46:35;21.00;50.80
45843;DHT22;31563;51.744;8.252;2024-01-30T14:49:04;21.00;50.90
45843;DHT22;31563;51.744;8.252;2024-01-30T14:51:33;20.90;51.00
45843;DHT22;31563;51.744;8.252;2024-01-30T14:54:02;20.90;51.00
45843;DHT22;31563;51.744;8.252;2024-01-30T14:56:30;20.80;51.10
45843;DHT22;31563;51.744;8.252;2024-01-30T14:58:59;20.70;51.20
45843;DHT22;31563;51.744;8.252;2024-01-30T15:01:27;20.70;51.20
45843;DHT22;31563;51.744;8.252;2024-01-30T15:03:55;20.80;51.20
45843;DHT22;31563;51.744;8.252;2024-01-30T15:06:25;20.80;51.20
45843;DHT22;31563;51.744;8.252;2024-01-30T15:08:53;20.80;51.80
45843;DHT22;31563;51.744;8.252;2024-01-30T15:11:21;20.80;51.20
45843;DHT22;31563;51.744;8.252;2024-01-30T15:13:49;20.80;51.30
45843;DHT22;31563;51.744;8.252;2024-01-30T15:16:17;20.80;51.30
45843;DHT22;31563;51.744;8.252;2024-01-30T15:18:45;20.70;51.80
45843;DHT22;31563;51.744;8.252;2024-01-30T15:21:13;20.80;52.10
45843;DHT22;31563;51.744;8.252;2024-01-30T15:23:42;21.00;52.10
45843;DHT22;31563;51.744;8.252;2024-01-30T15:26:10;21.00;52.00
45843;DHT22;31563;51.744;8.252;2024-01-30T15:28:39;21.00;52.10
45843;DHT22;31563;51.744;8.252;2024-01-30T15:31:07;21.00;52.10
45843;DHT22;31563;51.744;8.252;2024-01-30T15:33:35;21.10;51.90
45843;DHT22;31563;51.744;8.252;2024-01-30T15:36:03;20.90;51.70
45843;DHT22;31563;51.744;8.252;2024-01-30T15:38:31;20.80;51.80
45843;DHT22;31563;51.744;8.252;2024-01-30T15:41:01;20.70;51.90